Orlean, Virginia
Current Conditions -  °F | °C
As of 1:35 PM on Thursday 27 Nov 2014 (Local Time) from KCJR Reporting Station
Broken Clouds Broken Clouds  
Wind Chill: 40°   Ceiling: 6500
Heat Index: 45°   Visibility: 10mi
Dew Point: 32°   Wind: 8mph
Humidity: 61%   Direction: 340°NNW
Pressure: 30.05"   Gusts: NA
Location:  38.75°N, 77.96°W
Report Text: KCJR 271835Z AUTO 34007KT 10SM SCT037 BKN065 07/00 A3005 RMK AO2
Loading
Personal Weather Stations






























Interactive Weather Map New forecast layout! Learn more

10-Day Weather Forecast

Advertisements
Track Severe Weather on mobile